Time;durP1;ratioP1;P1;durP2;ratioP2;P2;SDS_P1;SDS_P2;PMS_P1;PMS_P2;Temp;Humidity;BMP_temperature;BMP_pressure;BME280_temperature;BME280_humidity;BME280_pressure;Samples;Min_cycle;Max_cycle;Signal;HPM_P1;HPM_P2
2023/04/12 00:01:11;;;;;;;3.63;1.60;;;9.30;99.90;;;;;;5098077;28;20405;-76
2023/04/12 00:03:38;;;;;;;4.55;1.40;;;9.40;99.90;;;;;;5097265;28;20414;-76
2023/04/12 00:06:06;;;;;;;4.10;1.30;;;9.40;99.90;;;;;;5091929;28;20413;-76
2023/04/12 00:08:34;;;;;;;2.88;1.30;;;9.50;99.90;;;;;;5095615;28;20708;-73
2023/04/12 00:11:03;;;;;;;6.15;1.30;;;9.50;99.90;;;;;;5095103;28;20422;-76
2023/04/12 00:13:30;;;;;;;2.45;1.25;;;9.30;99.90;;;;;;5100323;28;20443;-76
2023/04/12 00:15:56;;;;;;;1.90;1.30;;;9.40;99.90;;;;;;5114140;27;20417;-74
2023/04/12 00:18:23;;;;;;;2.17;1.17;;;9.30;99.90;;;;;;5104872;27;20490;-75
2023/04/12 00:20:55;;;;;;;2.07;1.33;;;9.30;99.90;;;;;;5102167;27;20819;-76
2023/04/12 00:23:21;;;;;;;1.58;1.10;;;9.30;99.90;;;;;;5080429;28;20409;-76
2023/04/12 00:25:48;;;;;;;1.60;1.00;;;9.20;99.90;;;;;;5095597;28;21145;-75
2023/04/12 00:28:14;;;;;;;2.80;1.10;;;9.10;99.90;;;;;;5115352;27;20775;-75
2023/04/12 00:30:40;;;;;;;2.22;1.17;;;9.20;99.90;;;;;;5114889;28;20409;-75
2023/04/12 00:33:07;;;;;;;3.17;1.00;;;9.40;99.90;;;;;;5099066;28;20437;-75
2023/04/12 00:35:33;;;;;;;1.60;1.20;;;9.40;99.90;;;;;;5099720;28;20724;-73
2023/04/12 00:38:01;;;;;;;2.17;1.17;;;9.40;99.90;;;;;;5090525;28;20411;-75
2023/04/12 00:40:28;;;;;;;2.05;1.20;;;9.20;99.90;;;;;;5085615;28;20418;-75
2023/04/12 00:42:56;;;;;;;2.42;1.30;;;9.20;99.90;;;;;;5082492;28;20453;-75
2023/04/12 00:45:22;;;;;;;4.65;1.40;;;9.20;99.90;;;;;;5078151;28;20415;-75
2023/04/12 00:47:48;;;;;;;3.78;1.33;;;9.10;99.90;;;;;;5082441;28;20443;-75
2023/04/12 00:50:14;;;;;;;3.10;1.30;;;9.10;99.90;;;;;;5084526;28;20432;-75
2023/04/12 00:52:41;;;;;;;2.38;1.30;;;9.20;99.90;;;;;;5064679;28;20517;-75
2023/04/12 00:55:11;;;;;;;3.30;1.50;;;9.20;99.90;;;;;;5088567;28;21073;-73
2023/04/12 00:57:39;;;;;;;4.38;1.70;;;9.10;99.90;;;;;;5099287;28;20406;-75
2023/04/12 01:00:11;;;;;;;4.87;1.60;;;9.20;99.90;;;;;;5083828;28;20409;-75
2023/04/12 01:02:46;;;;;;;3.72;1.60;;;9.20;99.90;;;;;;5080938;28;20427;-75
2023/04/12 01:05:20;;;;;;;4.30;1.80;;;9.20;99.90;;;;;;5080797;28;20416;-75
2023/04/12 01:08:42;;;;;;;3.70;1.65;;;9.30;99.90;;;;;;5083502;28;20423;-75
2023/04/12 01:11:35;;;;;;;4.40;1.58;;;9.10;99.90;;;;;;5047440;28;20472;-75
2023/04/12 01:14:21;;;;;;;2.40;1.50;;;9.20;99.90;;;;;;5084982;28;20790;-75
2023/04/12 01:16:57;;;;;;;4.22;1.73;;;9.20;99.90;;;;;;5087119;28;20448;-75
2023/04/12 01:19:57;;;;;;;3.73;1.70;;;9.20;99.90;;;;;;5098898;28;20424;-75
2023/04/12 01:22:48;;;;;;;5.45;1.75;;;9.10;99.90;;;;;;5072744;28;20408;-75
2023/04/12 01:25:38;;;;;;;3.63;1.60;;;9.10;99.90;;;;;;5086209;28;20437;-75
2023/04/12 01:28:07;;;;;;;5.70;1.90;;;9.20;99.90;;;;;;5090457;28;20427;-75
2023/04/12 01:30:35;;;;;;;2.70;1.60;;;9.20;99.90;;;;;;5089489;28;20492;-75
2023/04/12 01:33:08;;;;;;;4.87;1.77;;;9.30;99.90;;;;;;5082573;28;20880;-75
2023/04/12 01:35:36;;;;;;;3.88;1.60;;;9.30;99.90;;;;;;5085864;28;20779;-75
2023/04/12 01:38:04;;;;;;;4.60;1.70;;;9.30;99.90;;;;;;5092014;28;20493;-75
2023/04/12 01:40:31;;;;;;;3.90;1.63;;;9.20;99.90;;;;;;5085585;28;20779;-75
2023/04/12 01:43:14;;;;;;;3.27;1.70;;;9.20;99.90;;;;;;5079974;28;20495;-75
2023/04/12 01:45:41;;;;;;;4.18;2.00;;;9.30;99.90;;;;;;5083629;28;20436;-75
2023/04/12 01:48:10;;;;;;;3.65;1.80;;;9.30;99.90;;;;;;5083904;28;20814;-75
2023/04/12 01:50:43;;;;;;;4.13;1.90;;;9.30;99.90;;;;;;5088494;28;20414;-76
2023/04/12 01:53:27;;;;;;;4.30;1.75;;;9.30;99.90;;;;;;5085236;28;20461;-76
2023/04/12 01:56:01;;;;;;;5.25;1.88;;;9.40;99.90;;;;;;5092579;28;20417;-76
2023/04/12 01:58:30;;;;;;;5.03;1.98;;;9.40;99.90;;;;;;5081175;28;20969;-76
2023/04/12 02:01:00;;;;;;;4.82;2.00;;;9.30;99.90;;;;;;5086845;28;21290;-74
2023/04/12 02:03:31;;;;;;;3.33;2.07;;;9.30;99.90;;;;;;5080210;28;20434;-75
2023/04/12 02:05:59;;;;;;;4.25;1.95;;;9.30;99.90;;;;;;5091483;28;20412;-74
2023/04/12 02:08:26;;;;;;;3.40;2.00;;;9.40;99.90;;;;;;5091680;28;20506;-74
2023/04/12 02:10:53;;;;;;;4.90;2.00;;;9.40;99.90;;;;;;5102682;27;20493;-74
2023/04/12 02:13:20;;;;;;;6.15;1.92;;;9.40;99.90;;;;;;5060695;28;20998;-74
2023/04/12 02:15:46;;;;;;;4.95;1.90;;;9.40;99.90;;;;;;5088685;28;20488;-75
2023/04/12 02:18:12;;;;;;;4.65;2.00;;;9.40;99.90;;;;;;5083516;28;20414;-75
2023/04/12 02:20:39;;;;;;;7.10;2.17;;;9.50;99.90;;;;;;5079642;28;20398;-75
2023/04/12 02:23:05;;;;;;;5.57;2.00;;;9.50;99.90;;;;;;5083025;28;20425;-74
2023/04/12 02:25:32;;;;;;;3.17;1.90;;;9.40;99.90;;;;;;5081812;28;20441;-75
2023/04/12 02:27:58;;;;;;;7.37;2.20;;;9.50;99.90;;;;;;5077368;28;20976;-75
2023/04/12 02:30:24;;;;;;;5.53;2.17;;;9.50;99.90;;;;;;5078639;28;20413;-75
2023/04/12 02:32:52;;;;;;;5.13;2.20;;;9.60;99.90;;;;;;5102122;27;20531;-75
2023/04/12 02:35:18;;;;;;;6.40;2.20;;;9.60;99.90;;;;;;5079596;28;20420;-75
2023/04/12 02:37:47;;;;;;;5.40;2.05;;;9.60;99.90;;;;;;5090420;28;20510;-75
2023/04/12 02:40:17;;;;;;;5.18;2.33;;;9.70;99.90;;;;;;5089037;28;20488;-76
2023/04/12 02:42:43;;;;;;;6.93;2.58;;;9.80;99.90;;;;;;5083988;28;20506;-75
2023/04/12 02:45:11;;;;;;;9.55;2.50;;;9.70;99.90;;;;;;5086069;28;20412;-74
2023/04/12 02:47:39;;;;;;;5.18;2.38;;;9.80;99.90;;;;;;5083963;28;21020;-75
2023/04/12 02:50:06;;;;;;;6.22;2.33;;;9.80;99.90;;;;;;5077524;28;20437;-74
2023/04/12 02:52:32;;;;;;;7.80;2.60;;;9.80;99.90;;;;;;5082783;28;20449;-74
2023/04/12 02:54:59;;;;;;;6.32;2.38;;;9.90;99.90;;;;;;5121106;27;20500;-74
2023/04/12 02:57:25;;;;;;;7.20;2.60;;;10.00;99.90;;;;;;5082358;28;20957;-74
2023/04/12 02:59:54;;;;;;;6.63;2.80;;;9.90;99.90;;;;;;5084878;28;20467;-74
2023/04/12 03:02:22;;;;;;;5.80;2.47;;;9.90;99.90;;;;;;5079362;28;20410;-74
2023/04/12 03:04:52;;;;;;;6.60;2.42;;;9.80;99.90;;;;;;5081942;28;20421;-74
2023/04/12 03:07:19;;;;;;;5.65;2.35;;;9.90;99.90;;;;;;5081417;28;20939;-74
2023/04/12 03:09:48;;;;;;;4.32;2.33;;;9.80;99.90;;;;;;5082358;28;20501;-74
2023/04/12 03:12:15;;;;;;;6.13;2.15;;;9.90;99.90;;;;;;5080371;28;20467;-74
2023/04/12 03:14:42;;;;;;;5.93;2.28;;;9.90;99.90;;;;;;5100278;28;20408;-74
2023/04/12 03:17:08;;;;;;;5.15;2.35;;;9.90;99.90;;;;;;5083409;28;20415;-74
2023/04/12 03:19:35;;;;;;;6.68;2.42;;;9.90;99.90;;;;;;5085253;28;20424;-74
2023/04/12 03:22:03;;;;;;;6.00;2.50;;;9.90;99.90;;;;;;5080874;28;20469;-74
2023/04/12 03:24:33;;;;;;;5.13;2.30;;;9.90;99.90;;;;;;5084010;28;20426;-74
2023/04/12 03:27:04;;;;;;;6.53;2.42;;;9.80;99.90;;;;;;5082858;28;20409;-74
2023/04/12 03:29:31;;;;;;;4.03;2.25;;;9.80;99.90;;;;;;5083974;28;20406;-74
2023/04/12 03:31:58;;;;;;;5.07;2.30;;;9.70;99.90;;;;;;5082610;28;20464;-74
2023/04/12 03:34:31;;;;;;;4.63;2.30;;;9.60;99.90;;;;;;5077009;28;20798;-74
2023/04/12 03:37:01;;;;;;;4.43;2.30;;;9.50;99.90;;;;;;5080815;28;20406;-74
2023/04/12 03:39:28;;;;;;;5.88;2.30;;;9.40;99.90;;;;;;5078372;28;20512;-74
2023/04/12 03:41:54;;;;;;;5.38;2.00;;;9.40;99.90;;;;;;5109840;28;20984;-73
2023/04/12 03:44:21;;;;;;;5.20;1.90;;;9.50;99.90;;;;;;5078696;28;20497;-74
2023/04/12 03:46:47;;;;;;;3.70;1.92;;;9.50;99.90;;;;;;5080373;28;20412;-74
2023/04/12 03:49:15;;;;;;;6.00;2.20;;;9.60;99.90;;;;;;5081622;28;20411;-74
2023/04/12 03:51:42;;;;;;;4.30;1.83;;;9.60;99.90;;;;;;5084300;28;20408;-74
2023/04/12 03:54:12;;;;;;;5.15;2.00;;;9.60;99.90;;;;;;5082193;28;20481;-74
2023/04/12 03:56:38;;;;;;;4.75;2.00;;;9.50;99.90;;;;;;5088302;28;20412;-74
2023/04/12 03:59:09;;;;;;;5.00;2.00;;;9.60;99.90;;;;;;5080845;28;20410;-74
2023/04/12 04:01:36;;;;;;;4.70;2.00;;;9.70;99.90;;;;;;5099220;28;20493;-74
2023/04/12 04:04:04;;;;;;;4.28;1.98;;;9.70;99.90;;;;;;5084584;28;20416;-73
2023/04/12 04:06:30;;;;;;;5.18;2.08;;;9.70;99.90;;;;;;5083854;28;20782;-74
2023/04/12 04:08:57;;;;;;;4.20;1.60;;;9.80;99.90;;;;;;5078030;28;20390;-74
2023/04/12 04:11:24;;;;;;;4.87;1.67;;;9.80;99.90;;;;;;5084353;28;20467;-73
2023/04/12 04:13:51;;;;;;;4.95;1.77;;;9.80;99.90;;;;;;5082934;28;20891;-73
2023/04/12 04:16:17;;;;;;;4.22;1.60;;;9.80;99.90;;;;;;5089096;28;20497;-74
2023/04/12 04:18:43;;;;;;;5.28;1.88;;;9.80;99.90;;;;;;5116479;27;20883;-73
2023/04/12 04:21:09;;;;;;;3.47;1.67;;;9.90;99.90;;;;;;5103030;27;20583;-74
2023/04/12 04:23:38;;;;;;;4.80;1.80;;;9.90;99.90;;;;;;5085149;28;20458;-74
2023/04/12 04:26:10;;;;;;;3.70;1.40;;;9.90;99.90;;;;;;5075456;28;20421;-74
2023/04/12 04:28:41;;;;;;;3.13;1.60;;;10.00;99.90;;;;;;5082940;28;20931;-74
2023/04/12 04:31:09;;;;;;;4.93;1.83;;;9.90;99.90;;;;;;5083282;28;20474;-74
2023/04/12 04:33:36;;;;;;;3.43;1.73;;;10.00;99.90;;;;;;5091113;28;21219;-75
2023/04/12 04:36:04;;;;;;;4.43;1.80;;;10.00;99.90;;;;;;5082044;28;20937;-75
2023/04/12 04:38:33;;;;;;;4.05;1.70;;;10.00;99.90;;;;;;5071324;28;20408;-75
2023/04/12 04:41:01;;;;;;;5.03;1.70;;;9.90;99.90;;;;;;5080569;28;20416;-75
2023/04/12 04:43:32;;;;;;;4.75;1.80;;;9.90;99.90;;;;;;5086399;28;20429;-75
2023/04/12 04:45:59;;;;;;;6.35;1.70;;;9.90;99.90;;;;;;5101322;28;20445;-75
2023/04/12 04:48:26;;;;;;;5.00;1.70;;;10.00;99.90;;;;;;5090076;28;20443;-75
2023/04/12 04:50:53;;;;;;;3.22;1.40;;;9.90;99.90;;;;;;5085680;28;20487;-75
2023/04/12 04:53:21;;;;;;;4.50;1.77;;;9.90;99.90;;;;;;5092889;28;20445;-74
2023/04/12 04:55:48;;;;;;;5.13;1.58;;;10.00;99.90;;;;;;5086433;28;20669;-75
2023/04/12 04:58:15;;;;;;;3.85;1.48;;;10.00;99.90;;;;;;5084484;28;20803;-75
2023/04/12 05:00:43;;;;;;;4.40;1.50;;;10.00;99.90;;;;;;5101261;27;20519;-75
2023/04/12 05:03:10;;;;;;;3.22;1.50;;;10.10;99.90;;;;;;5082951;28;20417;-75
2023/04/12 05:05:37;;;;;;;3.35;1.50;;;10.10;99.90;;;;;;5077979;28;20414;-75
2023/04/12 05:08:04;;;;;;;4.72;1.50;;;10.10;99.90;;;;;;5080849;28;20472;-75
2023/04/12 05:10:30;;;;;;;3.25;1.40;;;10.10;99.90;;;;;;5080638;28;21086;-75
2023/04/12 05:12:56;;;;;;;4.00;1.70;;;10.20;99.90;;;;;;5085272;28;20447;-74
2023/04/12 05:15:23;;;;;;;3.92;1.60;;;10.30;99.90;;;;;;5077177;28;20842;-75
2023/04/12 05:17:49;;;;;;;6.75;1.77;;;10.30;99.90;;;;;;5083342;28;20416;-75
2023/04/12 05:20:15;;;;;;;4.73;1.53;;;10.40;99.90;;;;;;5085275;28;20494;-75
2023/04/12 05:22:42;;;;;;;5.13;1.60;;;10.40;99.90;;;;;;5089238;28;20425;-75
2023/04/12 05:25:09;;;;;;;4.67;1.70;;;10.50;99.90;;;;;;5088219;28;20426;-75
2023/04/12 05:27:35;;;;;;;4.95;1.70;;;10.50;99.90;;;;;;5083472;28;20418;-75
2023/04/12 05:30:01;;;;;;;5.40;1.67;;;10.60;99.90;;;;;;5091510;28;20417;-75
2023/04/12 05:32:27;;;;;;;4.28;1.33;;;10.60;99.90;;;;;;5086936;28;20766;-74
2023/04/12 05:34:54;;;;;;;3.78;1.40;;;10.70;99.90;;;;;;5085066;28;20787;-74
2023/04/12 05:37:21;;;;;;;4.00;1.50;;;10.70;99.90;;;;;;5088526;28;20465;-74
2023/04/12 05:39:47;;;;;;;3.95;1.58;;;10.70;99.90;;;;;;5090974;28;20930;-74
2023/04/12 05:42:13;;;;;;;6.22;1.67;;;10.70;99.90;;;;;;5075211;28;20502;-74
2023/04/12 05:44:40;;;;;;;3.25;1.40;;;10.80;99.90;;;;;;5080259;28;20483;-74
2023/04/12 05:47:06;;;;;;;3.90;1.45;;;10.80;99.90;;;;;;5081632;28;20404;-74
2023/04/12 05:49:32;;;;;;;4.00;1.50;;;10.90;99.90;;;;;;5081890;28;20784;-74
2023/04/12 05:51:59;;;;;;;3.55;1.42;;;11.00;99.90;;;;;;5098979;27;20792;-74
2023/04/12 05:54:25;;;;;;;4.38;1.50;;;11.00;99.90;;;;;;5086220;28;20881;-74
2023/04/12 05:56:54;;;;;;;5.97;1.60;;;11.10;99.90;;;;;;5088687;28;20406;-74
2023/04/12 05:59:21;;;;;;;3.92;1.52;;;11.20;99.90;;;;;;5087650;28;20461;-74
2023/04/12 06:01:47;;;;;;;3.73;1.57;;;11.30;99.90;;;;;;5083594;28;20503;-74
2023/04/12 06:04:14;;;;;;;3.65;1.58;;;11.30;99.90;;;;;;5093097;28;20495;-73
2023/04/12 06:06:42;;;;;;;4.05;1.50;;;11.40;99.90;;;;;;5085087;28;21081;-75
2023/04/12 06:09:09;;;;;;;4.65;1.60;;;11.50;99.90;;;;;;5095149;28;20410;-75
2023/04/12 06:11:37;;;;;;;5.65;1.55;;;11.60;99.90;;;;;;5087851;28;20404;-75
2023/04/12 06:14:04;;;;;;;5.10;1.80;;;11.60;99.90;;;;;;5082559;28;20445;-75
2023/04/12 06:16:30;;;;;;;4.53;1.50;;;11.60;99.90;;;;;;5100486;27;20429;-75
2023/04/12 06:18:57;;;;;;;3.85;1.60;;;11.60;99.90;;;;;;5085546;28;21089;-75
2023/04/12 06:21:24;;;;;;;5.50;1.80;;;11.60;99.90;;;;;;5078560;28;21020;-74
2023/04/12 06:23:50;;;;;;;5.20;1.70;;;11.60;99.90;;;;;;5082570;28;20417;-74
2023/04/12 06:26:16;;;;;;;4.75;1.60;;;11.60;99.90;;;;;;5110736;27;20431;-75
2023/04/12 06:28:42;;;;;;;3.85;1.58;;;11.50;99.90;;;;;;5089674;28;20410;-75
2023/04/12 06:31:09;;;;;;;3.40;1.80;;;11.50;99.90;;;;;;5086150;28;20450;-75
2023/04/12 06:33:35;;;;;;;5.72;1.70;;;11.60;99.90;;;;;;5087177;28;20486;-74
2023/04/12 06:36:02;;;;;;;3.65;1.60;;;11.60;99.90;;;;;;5101909;27;20422;-74
2023/04/12 06:38:28;;;;;;;6.03;1.50;;;11.70;99.90;;;;;;5083804;28;20416;-74
2023/04/12 06:40:55;;;;;;;4.53;1.73;;;11.90;99.90;;;;;;5076649;28;20414;-74
2023/04/12 06:43:21;;;;;;;4.38;1.70;;;11.90;99.90;;;;;;5096600;28;20441;-74
2023/04/12 06:45:51;;;;;;;4.78;1.52;;;12.00;99.90;;;;;;5079757;28;20417;-74
2023/04/12 06:48:17;;;;;;;2.80;1.48;;;12.10;99.90;;;;;;5079177;28;21522;-74
2023/04/12 06:50:47;;;;;;;4.07;1.50;;;12.20;99.90;;;;;;5078476;28;20417;-74
2023/04/12 06:53:13;;;;;;;4.80;1.60;;;12.30;99.90;;;;;;5086543;28;20420;-74
2023/04/12 06:55:40;;;;;;;4.57;1.60;;;12.30;99.90;;;;;;5084831;28;20419;-74
2023/04/12 06:58:06;;;;;;;4.30;1.45;;;12.30;99.90;;;;;;5083536;28;20409;-74
2023/04/12 07:00:33;;;;;;;3.67;1.60;;;12.40;99.90;;;;;;5080968;28;20865;-74
2023/04/12 07:02:59;;;;;;;3.73;1.40;;;12.40;99.90;;;;;;5062675;28;20408;-74
2023/04/12 07:05:25;;;;;;;4.05;1.50;;;12.50;99.90;;;;;;5089374;28;20410;-74
2023/04/12 07:07:52;;;;;;;3.95;1.35;;;12.20;99.90;;;;;;5083953;28;20426;-74
2023/04/12 07:10:18;;;;;;;3.42;1.55;;;12.00;99.90;;;;;;5089185;28;20410;-74
2023/04/12 07:12:44;;;;;;;3.90;1.50;;;12.00;99.90;;;;;;5078863;28;21223;-74
2023/04/12 07:15:10;;;;;;;3.90;1.35;;;11.80;99.90;;;;;;5077651;28;20429;-74
2023/04/12 07:17:37;;;;;;;3.35;1.20;;;11.70;99.90;;;;;;5076412;28;20482;-74
2023/04/12 07:20:04;;;;;;;3.50;1.30;;;11.60;99.90;;;;;;5075108;28;20410;-74
2023/04/12 07:22:30;;;;;;;5.78;1.60;;;11.50;99.90;;;;;;5083282;28;20413;-74
2023/04/12 07:24:56;;;;;;;5.43;1.70;;;11.80;99.90;;;;;;5087397;28;20428;-74
2023/04/12 07:27:23;;;;;;;3.90;1.50;;;11.70;99.90;;;;;;5085654;28;20421;-74
2023/04/12 07:29:52;;;;;;;4.00;1.48;;;11.80;99.90;;;;;;5087184;28;20478;-75
2023/04/12 07:32:18;;;;;;;4.63;1.40;;;11.80;99.90;;;;;;5070881;28;20408;-75
2023/04/12 07:34:44;;;;;;;6.50;2.90;;;11.90;99.90;;;;;;5080987;28;20416;-75
2023/04/12 07:37:11;;;;;;;3.28;1.63;;;12.00;99.90;;;;;;5105053;27;20421;-75
2023/04/12 07:39:39;;;;;;;4.10;1.60;;;12.00;99.90;;;;;;5061508;28;20751;-75
2023/04/12 07:42:06;;;;;;;3.00;1.57;;;12.10;99.90;;;;;;5080071;28;20428;-75
2023/04/12 07:44:32;;;;;;;5.00;2.40;;;12.00;99.90;;;;;;5084341;28;20440;-75
2023/04/12 07:47:00;;;;;;;3.50;1.70;;;12.00;99.90;;;;;;5085041;28;20419;-75
2023/04/12 07:49:26;;;;;;;3.50;1.50;;;12.10;99.90;;;;;;5086787;28;20454;-75
2023/04/12 07:51:53;;;;;;;4.43;1.50;;;12.00;99.90;;;;;;5086203;28;20835;-74
2023/04/12 07:54:19;;;;;;;4.97;1.70;;;11.80;99.90;;;;;;5088754;28;20496;-74
2023/04/12 07:57:04;;;;;;;4.07;1.70;;;12.00;99.90;;;;;;5085115;28;20471;-74
2023/04/12 07:59:31;;;;;;;4.97;1.70;;;12.10;99.90;;;;;;5105324;27;20473;-74
2023/04/12 08:01:57;;;;;;;6.05;1.85;;;12.20;99.90;;;;;;5085298;28;20418;-74
2023/04/12 08:04:23;;;;;;;3.97;1.67;;;12.20;99.90;;;;;;5085697;28;20413;-74
2023/04/12 08:06:50;;;;;;;4.35;1.60;;;12.00;99.90;;;;;;5084317;28;20763;-74
2023/04/12 08:09:16;;;;;;;4.32;1.80;;;11.80;99.90;;;;;;5081892;28;20942;-74
2023/04/12 08:11:43;;;;;;;3.87;1.77;;;11.70;99.90;;;;;;5091162;28;20403;-74
2023/04/12 08:14:09;;;;;;;4.65;1.80;;;11.60;99.90;;;;;;5074792;28;20410;-74
2023/04/12 08:16:35;;;;;;;3.78;1.80;;;11.50;99.90;;;;;;5088312;28;20420;-74
2023/04/12 08:19:02;;;;;;;4.45;1.70;;;11.60;99.90;;;;;;5089962;28;20856;-74
2023/04/12 08:21:28;;;;;;;8.23;5.15;;;11.70;99.90;;;;;;5066141;28;20502;-74
2023/04/12 08:23:55;;;;;;;5.97;2.60;;;12.00;99.90;;;;;;5104087;27;20405;-74
2023/04/12 08:26:22;;;;;;;6.78;1.88;;;11.90;99.90;;;;;;5087029;28;20422;-74
2023/04/12 08:28:48;;;;;;;2.85;1.52;;;12.20;99.90;;;;;;5089091;28;21402;-74
2023/04/12 08:31:15;;;;;;;4.38;1.90;;;12.30;99.90;;;;;;5083463;28;20465;-74
2023/04/12 08:33:42;;;;;;;4.35;1.90;;;12.20;99.90;;;;;;5084148;28;20409;-74
2023/04/12 08:36:09;;;;;;;3.87;1.70;;;12.50;99.90;;;;;;5079392;28;20423;-74
2023/04/12 08:38:37;;;;;;;5.18;1.90;;;12.70;99.90;;;;;;5083397;28;20424;-74
2023/04/12 08:41:06;;;;;;;5.45;1.90;;;13.10;99.90;;;;;;5084569;28;20417;-74
2023/04/12 08:43:34;;;;;;;8.10;2.00;;;13.30;99.90;;;;;;5094190;27;20418;-74
2023/04/12 08:46:01;;;;;;;7.07;1.90;;;13.30;99.90;;;;;;5064059;28;20460;-74
2023/04/12 08:48:28;;;;;;;3.97;1.63;;;13.20;99.90;;;;;;5084045;28;20946;-74
2023/04/12 08:50:56;;;;;;;5.47;1.70;;;13.10;99.90;;;;;;5081200;28;20512;-74
2023/04/12 08:53:22;;;;;;;5.68;1.92;;;13.40;99.90;;;;;;5065443;28;20911;-74
2023/04/12 08:55:49;;;;;;;5.40;1.70;;;13.50;99.90;;;;;;5083942;28;20416;-74
2023/04/12 08:58:15;;;;;;;4.93;2.00;;;13.30;99.90;;;;;;5078462;28;20438;-74
2023/04/12 09:00:44;;;;;;;3.28;1.80;;;13.20;99.90;;;;;;5082746;28;20422;-75
2023/04/12 09:03:10;;;;;;;4.40;1.88;;;13.00;99.90;;;;;;5113115;27;20505;-75
2023/04/12 09:05:36;;;;;;;6.13;2.13;;;12.90;99.90;;;;;;5087545;28;20410;-75
2023/04/12 09:08:04;;;;;;;5.97;2.33;;;13.00;99.90;;;;;;5091183;28;20463;-76
2023/04/12 09:10:37;;;;;;;6.50;2.00;;;13.10;99.90;;;;;;5083928;28;20787;-75
2023/04/12 09:13:05;;;;;;;4.85;1.90;;;13.40;99.90;;;;;;5101728;27;20420;-75
2023/04/12 09:15:32;;;;;;;6.05;1.83;;;13.70;99.90;;;;;;5081340;28;20432;-75
2023/04/12 09:18:12;;;;;;;5.05;1.85;;;14.00;99.90;;;;;;5089226;28;20970;-75
2023/04/12 09:20:39;;;;;;;9.80;2.08;;;14.30;99.90;;;;;;5083076;28;20427;-75
2023/04/12 09:23:20;;;;;;;3.25;1.70;;;14.30;99.90;;;;;;5097392;27;20504;-75
2023/04/12 09:25:50;;;;;;;4.07;1.60;;;14.00;99.90;;;;;;5087547;28;20419;-75
2023/04/12 09:28:28;;;;;;;6.10;1.70;;;14.00;99.90;;;;;;5079264;28;20415;-76
2023/04/12 09:30:57;;;;;;;3.53;1.60;;;14.20;99.90;;;;;;5077695;28;20468;-76
2023/04/12 09:33:38;;;;;;;4.40;1.70;;;14.30;99.90;;;;;;5087360;28;20419;-75
2023/04/12 09:36:16;;;;;;;4.18;1.73;;;14.50;99.90;;;;;;5095830;27;20936;-76
2023/04/12 09:39:03;;;;;;;5.40;1.90;;;14.70;99.90;;;;;;5072334;28;20421;-76
2023/04/12 09:41:30;;;;;;;2.63;1.58;;;14.80;99.90;;;;;;5078239;28;20467;-76
2023/04/12 09:44:02;;;;;;;8.00;2.10;;;14.50;99.90;;;;;;5079091;28;20927;-75
2023/04/12 09:46:29;;;;;;;3.33;1.70;;;14.40;99.90;;;;;;5086986;28;20424;-76
2023/04/12 09:49:02;;;;;;;2.85;1.50;;;14.70;99.90;;;;;;5086049;28;20800;-75
2023/04/12 09:51:34;;;;;;;2.90;1.70;;;15.10;99.90;;;;;;5083174;28;20443;-75
2023/04/12 09:54:05;;;;;;;3.42;1.75;;;15.30;99.90;;;;;;5083862;28;20426;-75
2023/04/12 09:56:38;;;;;;;3.83;1.98;;;15.60;99.90;;;;;;5089820;28;20421;-76
2023/04/12 09:59:06;;;;;;;4.13;1.90;;;16.00;99.90;;;;;;5079494;28;20413;-76
2023/04/12 10:01:39;;;;;;;3.80;1.88;;;16.20;99.90;;;;;;5087177;28;20414;-76
2023/04/12 10:04:08;;;;;;;3.15;1.73;;;16.50;99.90;;;;;;5103645;27;21107;-76
2023/04/12 10:06:35;;;;;;;4.18;2.05;;;16.50;99.90;;;;;;5103897;27;20495;-75
2023/04/12 10:09:07;;;;;;;4.00;2.00;;;16.10;99.90;;;;;;5100515;27;20443;-75
2023/04/12 10:11:34;;;;;;;3.45;2.20;;;15.90;99.90;;;;;;5086932;28;20425;-75
2023/04/12 10:14:02;;;;;;;6.97;2.35;;;16.10;99.90;;;;;;5066314;28;20406;-75
2023/04/12 10:16:32;;;;;;;3.25;2.00;;;16.30;99.90;;;;;;5072262;28;20436;-75
2023/04/12 10:19:02;;;;;;;5.60;1.90;;;16.50;99.90;;;;;;5067730;28;20513;-75
2023/04/12 10:21:30;;;;;;;4.93;1.90;;;16.80;99.90;;;;;;5080514;28;20434;-75
2023/04/12 10:23:57;;;;;;;5.75;2.10;;;17.00;99.90;;;;;;5083995;28;20450;-75
2023/04/12 10:26:23;;;;;;;4.17;2.30;;;16.80;99.90;;;;;;5105783;27;20414;-75
2023/04/12 10:29:24;;;;;;;4.28;2.17;;;16.40;99.90;;;;;;5080263;28;20448;-72
2023/04/12 10:31:50;;;;;;;5.60;2.50;;;16.50;99.90;;;;;;5085841;28;20417;-75
2023/04/12 10:34:23;;;;;;;5.28;2.78;;;16.60;99.90;;;;;;5087437;28;20430;-75
2023/04/12 10:36:58;;;;;;;4.82;2.50;;;16.70;99.90;;;;;;5083391;28;20413;-75
2023/04/12 10:39:39;;;;;;;6.83;2.60;;;16.70;99.90;;;;;;5066230;28;20933;-74
2023/04/12 10:42:26;;;;;;;5.03;2.50;;;16.80;99.90;;;;;;5102612;27;20509;-74
2023/04/12 10:45:23;;;;;;;7.13;2.85;;;16.70;99.90;;;;;;5078769;28;20419;-74
2023/04/12 10:47:53;;;;;;;5.75;3.00;;;16.50;99.90;;;;;;5084127;28;20498;-75
2023/04/12 10:50:30;;;;;;;6.15;3.10;;;16.40;99.90;;;;;;5083153;28;20431;-74
2023/04/12 10:53:11;;;;;;;6.95;3.20;;;15.90;99.90;;;;;;5071163;28;20464;-75
2023/04/12 10:55:43;;;;;;;5.88;2.90;;;15.60;99.90;;;;;;5070353;28;20420;-75
2023/04/12 10:58:30;;;;;;;5.75;3.00;;;15.50;99.90;;;;;;5084129;28;20420;-74
2023/04/12 11:00:59;;;;;;;5.37;2.90;;;15.60;99.90;;;;;;5080024;28;21142;-74
2023/04/12 11:03:27;;;;;;;3.97;2.65;;;15.70;99.90;;;;;;5085690;28;20409;-74
2023/04/12 11:06:05;;;;;;;5.95;2.80;;;15.70;99.90;;;;;;5089397;28;20428;-75
2023/04/12 11:08:39;;;;;;;5.20;3.20;;;15.90;99.90;;;;;;5074098;28;20786;-75
2023/04/12 11:11:19;;;;;;;5.93;3.10;;;15.80;99.90;;;;;;5086296;28;20406;-74
2023/04/12 11:13:46;;;;;;;3.97;3.58;;;15.70;99.90;;;;;;5110416;27;20410;-74
2023/04/12 11:16:12;;;;;;;5.65;3.47;;;15.70;99.90;;;;;;5082106;28;20421;-74
2023/04/12 11:18:39;;;;;;;5.68;3.92;;;15.80;99.90;;;;;;5080801;28;20845;-75
2023/04/12 11:21:06;;;;;;;5.70;3.47;;;16.20;99.90;;;;;;5083043;28;20414;-75
2023/04/12 11:23:35;;;;;;;6.78;3.78;;;16.30;99.90;;;;;;5090676;28;20412;-75
2023/04/12 11:26:03;;;;;;;5.72;3.45;;;15.90;99.90;;;;;;5105135;27;20419;-75
2023/04/12 11:28:29;;;;;;;7.90;3.30;;;15.70;99.90;;;;;;5098039;28;20409;-75
2023/04/12 11:30:58;;;;;;;6.22;3.35;;;15.50;99.90;;;;;;5074978;28;20408;-75
2023/04/12 11:33:51;;;;;;;3.03;2.30;;;15.60;99.90;;;;;;5085970;28;20844;-76
2023/04/12 11:36:17;;;;;;;5.13;2.50;;;15.60;99.90;;;;;;5077030;28;20824;-76
2023/04/12 11:38:46;;;;;;;10.50;7.93;;;15.60;99.90;;;;;;5075469;28;20411;-76
2023/04/12 11:41:15;;;;;;;7.13;3.42;;;15.80;99.90;;;;;;5094618;28;20919;-76
2023/04/12 11:43:42;;;;;;;6.63;3.00;;;16.20;99.90;;;;;;5083566;28;20435;-76
2023/04/12 11:46:09;;;;;;;6.00;3.35;;;16.40;99.90;;;;;;5105051;28;20471;-76
2023/04/12 11:48:37;;;;;;;5.20;3.37;;;16.50;99.90;;;;;;5084836;28;20457;-75
2023/04/12 11:51:27;;;;;;;5.53;3.55;;;16.50;99.90;;;;;;5080552;28;20410;-75
2023/04/12 11:53:55;;;;;;;5.38;3.35;;;16.20;99.90;;;;;;5083480;28;20784;-75
2023/04/12 11:56:22;;;;;;;5.88;3.55;;;15.90;99.90;;;;;;5081791;28;20408;-75
2023/04/12 11:58:49;;;;;;;5.10;3.45;;;15.80;99.90;;;;;;5087292;28;20425;-75
2023/04/12 12:01:19;;;;;;;10.40;3.90;;;16.00;99.90;;;;;;5085440;28;20417;-75
2023/04/12 12:03:46;;;;;;;5.73;3.97;;;15.80;99.90;;;;;;5085684;28;20511;-74
2023/04/12 12:06:15;;;;;;;6.50;3.38;;;15.80;99.90;;;;;;5089602;28;20826;-75
2023/04/12 12:08:42;;;;;;;5.82;3.40;;;15.70;99.90;;;;;;5082524;28;20495;-75
2023/04/12 12:11:08;;;;;;;5.83;3.50;;;15.80;99.90;;;;;;5084671;28;20409;-75
2023/04/12 12:13:54;;;;;;;4.80;3.50;;;15.90;99.90;;;;;;5085650;28;20461;-75
2023/04/12 12:16:26;;;;;;;6.47;3.70;;;15.80;99.90;;;;;;5079345;28;20797;-75
2023/04/12 12:18:54;;;;;;;7.82;3.50;;;15.60;99.90;;;;;;5077002;28;20486;-75
2023/04/12 12:21:21;;;;;;;6.45;3.60;;;15.80;99.90;;;;;;5085033;28;20429;-75
2023/04/12 12:23:48;;;;;;;9.93;3.70;;;15.90;99.90;;;;;;5080088;28;20411;-75
2023/04/12 12:26:24;;;;;;;8.70;3.50;;;16.10;99.90;;;;;;5082075;28;20429;-75
2023/04/12 12:28:56;;;;;;;6.22;3.70;;;16.20;99.90;;;;;;5085380;28;20414;-75
2023/04/12 12:31:28;;;;;;;6.90;3.72;;;16.20;99.90;;;;;;5074194;28;20405;-75
2023/04/12 12:34:00;;;;;;;7.72;3.75;;;15.90;99.90;;;;;;5083539;28;21225;-75
2023/04/12 12:36:32;;;;;;;7.95;3.70;;;15.60;99.90;;;;;;5080495;28;20408;-74
2023/04/12 12:39:11;;;;;;;5.82;3.50;;;15.60;99.90;;;;;;5098050;28;20418;-75
2023/04/12 12:41:38;;;;;;;6.55;3.92;;;15.90;99.90;;;;;;5083584;28;20422;-73
2023/04/12 12:44:06;;;;;;;7.45;4.80;;;16.10;99.90;;;;;;5085146;28;20513;-73
2023/04/12 12:46:33;;;;;;;8.55;3.33;;;16.30;99.90;;;;;;5093820;27;20426;-73
2023/04/12 12:48:59;;;;;;;4.70;2.90;;;16.40;99.90;;;;;;5089686;28;20412;-73
2023/04/12 12:51:26;;;;;;;7.63;3.10;;;16.50;99.90;;;;;;5108775;27;20780;-73
2023/04/12 12:53:52;;;;;;;8.45;2.60;;;16.40;99.90;;;;;;5087400;28;20394;-73
2023/04/12 12:56:19;;;;;;;7.45;3.15;;;16.30;99.90;;;;;;5081946;28;20937;-73
2023/04/12 12:58:45;;;;;;;6.70;3.35;;;16.50;99.90;;;;;;5093604;28;20436;-73
2023/04/12 13:01:11;;;;;;;6.15;3.13;;;16.50;99.90;;;;;;5088794;28;20401;-73